首页
METAR-TAF:

METAR-TAF

机场 :

Imperatriz, 马拉尼昂州, 巴西

纬度: 05-32S, 经度: 047-30W, 海拔: 123米

当前天气观测

该预报发布于3小时和20分钟前的20:00 UTC
风速3节,风向东转东南
温度 36°C
湿度 31%
气压 1007 hPa
能见度10公里或以上
少量云层高于2000英尺

METAR: SBIZ 222000Z 12003KT 9999 FEW020 36/16 Q1007

时间: 20:20 (23:20 UTC)

预报

该预报发布于7小时和20分钟前的16:00 UTC
预报有效从22日的 18点(UTC)到 23日的 06点(UTC)
风速7节,风向
能见度10公里或以上
散云层高于2500英尺
成为
从 22日的 19点(UTC)到 22日的 21点(UTC)
风速节,风向
成为
从 22日的 23点(UTC)到 23日的 01点(UTC)
能见度10公里或以上
1500米以下无云,无积雨云

TAF: SBIZ 221600Z 2218/2306 09007KT 9999 SCT025 TX38/2219Z TN25/2306Z BECMG 2219/2221 00000KT BECMG 2223/2301 CAVOK RMK PDY

超过4000个机场的气象观测和天气预报(METAR&TAF报告)。

可查询的气象台以黄色和红色小点在地图上表示。

将鼠标移到小点上方,可查看气象台名称。

然后点击查看天气观测和预报。

如需切换地图:点击带黑十字的绿色按钮放大地图;点击带横线的绿色按钮缩小地图;或者点击绿色箭头查看邻近地区的地图。


METAR-TAF: